sensor_id;sensor_type;location;lat;lon;timestamp;P1;durP1;ratioP1;P2;durP2;ratioP2
12814;SDS011;6472;52.328;13.070;2022-08-14T00:01:49;15.10;;;11.43;;
12814;SDS011;6472;52.328;13.070;2022-08-14T00:04:22;11.63;;;10.18;;
12814;SDS011;6472;52.328;13.070;2022-08-14T00:07:00;13.23;;;10.90;;
12814;SDS011;6472;52.328;13.070;2022-08-14T00:09:29;13.55;;;10.85;;
12814;SDS011;6472;52.328;13.070;2022-08-14T00:11:58;12.90;;;11.10;;
12814;SDS011;6472;52.328;13.070;2022-08-14T00:14:26;17.08;;;12.20;;
12814;SDS011;6472;52.328;13.070;2022-08-14T00:16:54;14.85;;;11.57;;
12814;SDS011;6472;52.328;13.070;2022-08-14T00:19:27;15.32;;;12.50;;
12814;SDS011;6472;52.328;13.070;2022-08-14T00:21:57;15.23;;;10.98;;
12814;SDS011;6472;52.328;13.070;2022-08-14T00:24:26;12.35;;;9.88;;
12814;SDS011;6472;52.328;13.070;2022-08-14T00:26:56;13.00;;;10.55;;
12814;SDS011;6472;52.328;13.070;2022-08-14T00:29:28;13.82;;;10.52;;
12814;SDS011;6472;52.328;13.070;2022-08-14T00:32:06;13.23;;;10.70;;
12814;SDS011;6472;52.328;13.070;2022-08-14T00:34:55;12.52;;;10.63;;
12814;SDS011;6472;52.328;13.070;2022-08-14T00:37:26;14.07;;;10.65;;
12814;SDS011;6472;52.328;13.070;2022-08-14T00:39:57;12.13;;;10.80;;
12814;SDS011;6472;52.328;13.070;2022-08-14T00:42:26;12.52;;;11.23;;
12814;SDS011;6472;52.328;13.070;2022-08-14T00:45:17;13.70;;;10.98;;
12814;SDS011;6472;52.328;13.070;2022-08-14T00:47:47;12.32;;;10.55;;
12814;SDS011;6472;52.328;13.070;2022-08-14T00:50:18;16.42;;;11.13;;
12814;SDS011;6472;52.328;13.070;2022-08-14T00:52:48;12.95;;;11.55;;
12814;SDS011;6472;52.328;13.070;2022-08-14T00:55:18;11.95;;;10.27;;
12814;SDS011;6472;52.328;13.070;2022-08-14T00:57:48;10.88;;;9.80;;
12814;SDS011;6472;52.328;13.070;2022-08-14T01:00:37;13.93;;;10.68;;
12814;SDS011;6472;52.328;13.070;2022-08-14T01:03:16;11.65;;;10.07;;
12814;SDS011;6472;52.328;13.070;2022-08-14T01:05:48;12.93;;;10.63;;
12814;SDS011;6472;52.328;13.070;2022-08-14T01:08:18;14.45;;;11.85;;
12814;SDS011;6472;52.328;13.070;2022-08-14T01:11:07;12.77;;;10.95;;
12814;SDS011;6472;52.328;13.070;2022-08-14T01:13:36;11.02;;;9.57;;
12814;SDS011;6472;52.328;13.070;2022-08-14T01:16:09;12.45;;;10.18;;
12814;SDS011;6472;52.328;13.070;2022-08-14T01:18:40;12.98;;;11.10;;
12814;SDS011;6472;52.328;13.070;2022-08-14T01:21:30;14.13;;;10.80;;
12814;SDS011;6472;52.328;13.070;2022-08-14T01:24:12;12.10;;;10.27;;
12814;SDS011;6472;52.328;13.070;2022-08-14T01:26:55;12.73;;;10.40;;
12814;SDS011;6472;52.328;13.070;2022-08-14T01:29:26;13.70;;;10.23;;
12814;SDS011;6472;52.328;13.070;2022-08-14T01:32:16;13.18;;;10.77;;
12814;SDS011;6472;52.328;13.070;2022-08-14T01:34:49;13.27;;;10.45;;
12814;SDS011;6472;52.328;13.070;2022-08-14T01:37:40;11.00;;;9.90;;
12814;SDS011;6472;52.328;13.070;2022-08-14T01:40:22;10.48;;;9.10;;
12814;SDS011;6472;52.328;13.070;2022-08-14T01:42:58;11.60;;;10.40;;
12814;SDS011;6472;52.328;13.070;2022-08-14T01:45:28;11.23;;;10.02;;
12814;SDS011;6472;52.328;13.070;2022-08-14T01:48:05;12.52;;;10.50;;
12814;SDS011;6472;52.328;13.070;2022-08-14T01:50:39;12.07;;;10.23;;
12814;SDS011;6472;52.328;13.070;2022-08-14T01:53:10;11.60;;;10.18;;
12814;SDS011;6472;52.328;13.070;2022-08-14T01:55:39;12.27;;;9.85;;
12814;SDS011;6472;52.328;13.070;2022-08-14T01:58:08;13.80;;;11.40;;
12814;SDS011;6472;52.328;13.070;2022-08-14T02:00:47;13.90;;;12.38;;
12814;SDS011;6472;52.328;13.070;2022-08-14T02:03:21;12.52;;;10.82;;
12814;SDS011;6472;52.328;13.070;2022-08-14T02:05:55;16.23;;;11.90;;
12814;SDS011;6472;52.328;13.070;2022-08-14T02:08:31;13.02;;;10.98;;
12814;SDS011;6472;52.328;13.070;2022-08-14T02:11:18;14.57;;;11.90;;
12814;SDS011;6472;52.328;13.070;2022-08-14T02:13:51;12.27;;;10.07;;
12814;SDS011;6472;52.328;13.070;2022-08-14T02:16:33;12.50;;;10.43;;
12814;SDS011;6472;52.328;13.070;2022-08-14T02:19:05;13.35;;;11.13;;
12814;SDS011;6472;52.328;13.070;2022-08-14T02:21:34;12.52;;;11.20;;
12814;SDS011;6472;52.328;13.070;2022-08-14T02:24:13;11.32;;;9.77;;
12814;SDS011;6472;52.328;13.070;2022-08-14T02:27:02;11.38;;;10.18;;
12814;SDS011;6472;52.328;13.070;2022-08-14T02:29:51;12.85;;;10.35;;
12814;SDS011;6472;52.328;13.070;2022-08-14T02:32:27;11.10;;;9.45;;
12814;SDS011;6472;52.328;13.070;2022-08-14T02:35:03;12.77;;;10.45;;
12814;SDS011;6472;52.328;13.070;2022-08-14T02:37:44;13.38;;;11.57;;
12814;SDS011;6472;52.328;13.070;2022-08-14T02:40:16;12.27;;;10.77;;
12814;SDS011;6472;52.328;13.070;2022-08-14T02:42:45;12.77;;;10.82;;
12814;SDS011;6472;52.328;13.070;2022-08-14T02:45:22;12.98;;;10.70;;
12814;SDS011;6472;52.328;13.070;2022-08-14T02:47:58;13.35;;;9.77;;
12814;SDS011;6472;52.328;13.070;2022-08-14T02:50:28;12.90;;;10.77;;
12814;SDS011;6472;52.328;13.070;2022-08-14T02:52:59;13.55;;;11.45;;
12814;SDS011;6472;52.328;13.070;2022-08-14T02:55:30;11.70;;;10.32;;
12814;SDS011;6472;52.328;13.070;2022-08-14T02:57:58;12.95;;;10.48;;
12814;SDS011;6472;52.328;13.070;2022-08-14T03:00:29;11.27;;;10.00;;
12814;SDS011;6472;52.328;13.070;2022-08-14T03:03:04;13.43;;;10.07;;
12814;SDS011;6472;52.328;13.070;2022-08-14T03:05:34;13.55;;;10.38;;
12814;SDS011;6472;52.328;13.070;2022-08-14T03:08:08;12.30;;;10.98;;
12814;SDS011;6472;52.328;13.070;2022-08-14T03:10:45;12.30;;;10.80;;
12814;SDS011;6472;52.328;13.070;2022-08-14T03:13:16;11.43;;;10.23;;
12814;SDS011;6472;52.328;13.070;2022-08-14T03:15:47;12.25;;;10.65;;
12814;SDS011;6472;52.328;13.070;2022-08-14T03:18:21;11.40;;;10.18;;
12814;SDS011;6472;52.328;13.070;2022-08-14T03:21:00;14.90;;;11.75;;
12814;SDS011;6472;52.328;13.070;2022-08-14T03:23:31;13.65;;;12.13;;
12814;SDS011;6472;52.328;13.070;2022-08-14T03:26:06;11.25;;;10.13;;
12814;SDS011;6472;52.328;13.070;2022-08-14T03:28:44;12.00;;;10.60;;
12814;SDS011;6472;52.328;13.070;2022-08-14T03:31:17;12.90;;;10.13;;
12814;SDS011;6472;52.328;13.070;2022-08-14T03:33:53;13.82;;;10.77;;
12814;SDS011;6472;52.328;13.070;2022-08-14T03:36:25;11.40;;;10.20;;
12814;SDS011;6472;52.328;13.070;2022-08-14T03:39:15;12.65;;;11.05;;
12814;SDS011;6472;52.328;13.070;2022-08-14T03:41:51;15.95;;;12.73;;
12814;SDS011;6472;52.328;13.070;2022-08-14T03:44:27;13.65;;;11.00;;
12814;SDS011;6472;52.328;13.070;2022-08-14T03:47:15;17.30;;;12.93;;
12814;SDS011;6472;52.328;13.070;2022-08-14T03:49:43;15.77;;;12.25;;
12814;SDS011;6472;52.328;13.070;2022-08-14T03:52:15;16.05;;;12.60;;
12814;SDS011;6472;52.328;13.070;2022-08-14T03:55:04;16.45;;;12.35;;
12814;SDS011;6472;52.328;13.070;2022-08-14T03:57:35;14.02;;;11.10;;
12814;SDS011;6472;52.328;13.070;2022-08-14T04:00:07;13.98;;;11.02;;
12814;SDS011;6472;52.328;13.070;2022-08-14T04:02:58;14.20;;;11.90;;
12814;SDS011;6472;52.328;13.070;2022-08-14T04:05:27;14.63;;;11.98;;
12814;SDS011;6472;52.328;13.070;2022-08-14T04:08:03;13.48;;;11.90;;
12814;SDS011;6472;52.328;13.070;2022-08-14T04:10:51;15.77;;;11.18;;
12814;SDS011;6472;52.328;13.070;2022-08-14T04:13:21;13.77;;;11.30;;
12814;SDS011;6472;52.328;13.070;2022-08-14T04:15:53;13.18;;;10.73;;
12814;SDS011;6472;52.328;13.070;2022-08-14T04:18:30;13.45;;;11.90;;
12814;SDS011;6472;52.328;13.070;2022-08-14T04:20:59;13.73;;;11.30;;
12814;SDS011;6472;52.328;13.070;2022-08-14T04:23:29;16.35;;;13.18;;
12814;SDS011;6472;52.328;13.070;2022-08-14T04:25:59;15.25;;;12.98;;
12814;SDS011;6472;52.328;13.070;2022-08-14T04:28:31;18.08;;;14.50;;
12814;SDS011;6472;52.328;13.070;2022-08-14T04:31:19;16.92;;;13.60;;
12814;SDS011;6472;52.328;13.070;2022-08-14T04:34:08;19.45;;;13.80;;
12814;SDS011;6472;52.328;13.070;2022-08-14T04:36:49;16.25;;;12.95;;
12814;SDS011;6472;52.328;13.070;2022-08-14T04:39:36;17.05;;;13.55;;
12814;SDS011;6472;52.328;13.070;2022-08-14T04:42:22;16.50;;;11.73;;
12814;SDS011;6472;52.328;13.070;2022-08-14T04:45:17;16.35;;;12.23;;
12814;SDS011;6472;52.328;13.070;2022-08-14T04:47:46;15.70;;;13.52;;
12814;SDS011;6472;52.328;13.070;2022-08-14T04:50:35;17.50;;;13.10;;
12814;SDS011;6472;52.328;13.070;2022-08-14T04:53:10;16.33;;;13.43;;
12814;SDS011;6472;52.328;13.070;2022-08-14T04:55:40;17.08;;;13.27;;
12814;SDS011;6472;52.328;13.070;2022-08-14T04:58:11;15.23;;;13.52;;
12814;SDS011;6472;52.328;13.070;2022-08-14T05:00:48;15.95;;;13.15;;
12814;SDS011;6472;52.328;13.070;2022-08-14T05:03:18;14.73;;;12.27;;
12814;SDS011;6472;52.328;13.070;2022-08-14T05:05:51;16.38;;;13.77;;
12814;SDS011;6472;52.328;13.070;2022-08-14T05:08:20;15.80;;;12.60;;
12814;SDS011;6472;52.328;13.070;2022-08-14T05:11:08;16.23;;;12.88;;
12814;SDS011;6472;52.328;13.070;2022-08-14T05:13:38;16.65;;;13.85;;
12814;SDS011;6472;52.328;13.070;2022-08-14T05:16:30;16.50;;;12.85;;
12814;SDS011;6472;52.328;13.070;2022-08-14T05:18:58;15.70;;;13.05;;
12814;SDS011;6472;52.328;13.070;2022-08-14T05:21:46;14.82;;;12.55;;
12814;SDS011;6472;52.328;13.070;2022-08-14T05:24:24;15.80;;;12.98;;
12814;SDS011;6472;52.328;13.070;2022-08-14T05:26:52;13.27;;;11.88;;
12814;SDS011;6472;52.328;13.070;2022-08-14T05:29:20;19.15;;;14.80;;
12814;SDS011;6472;52.328;13.070;2022-08-14T05:31:50;18.15;;;14.18;;
12814;SDS011;6472;52.328;13.070;2022-08-14T05:34:23;16.70;;;13.80;;
12814;SDS011;6472;52.328;13.070;2022-08-14T05:36:57;21.52;;;15.60;;
12814;SDS011;6472;52.328;13.070;2022-08-14T05:39:28;24.83;;;18.70;;
12814;SDS011;6472;52.328;13.070;2022-08-14T05:41:57;19.40;;;15.85;;
12814;SDS011;6472;52.328;13.070;2022-08-14T05:44:35;21.70;;;17.02;;
12814;SDS011;6472;52.328;13.070;2022-08-14T05:47:05;23.75;;;17.42;;
12814;SDS011;6472;52.328;13.070;2022-08-14T05:49:33;24.25;;;16.92;;
12814;SDS011;6472;52.328;13.070;2022-08-14T05:52:03;18.98;;;16.50;;
12814;SDS011;6472;52.328;13.070;2022-08-14T05:54:35;24.35;;;17.27;;
12814;SDS011;6472;52.328;13.070;2022-08-14T05:57:03;22.30;;;16.67;;
12814;SDS011;6472;52.328;13.070;2022-08-14T05:59:32;20.38;;;16.58;;
12814;SDS011;6472;52.328;13.070;2022-08-14T06:02:06;22.23;;;17.40;;
12814;SDS011;6472;52.328;13.070;2022-08-14T06:04:36;21.33;;;16.90;;
12814;SDS011;6472;52.328;13.070;2022-08-14T06:07:04;21.92;;;16.50;;
12814;SDS011;6472;52.328;13.070;2022-08-14T06:09:34;22.35;;;17.02;;
12814;SDS011;6472;52.328;13.070;2022-08-14T06:12:06;21.77;;;17.80;;
12814;SDS011;6472;52.328;13.070;2022-08-14T06:14:35;20.35;;;16.95;;
12814;SDS011;6472;52.328;13.070;2022-08-14T06:17:04;19.40;;;16.50;;
12814;SDS011;6472;52.328;13.070;2022-08-14T06:19:34;17.55;;;15.63;;
12814;SDS011;6472;52.328;13.070;2022-08-14T06:22:02;16.52;;;14.82;;
12814;SDS011;6472;52.328;13.070;2022-08-14T06:24:34;16.80;;;14.05;;
12814;SDS011;6472;52.328;13.070;2022-08-14T06:27:09;16.42;;;14.43;;
12814;SDS011;6472;52.328;13.070;2022-08-14T06:29:41;16.73;;;14.88;;
12814;SDS011;6472;52.328;13.070;2022-08-14T06:32:09;18.08;;;15.07;;
12814;SDS011;6472;52.328;13.070;2022-08-14T06:34:58;16.70;;;14.32;;
12814;SDS011;6472;52.328;13.070;2022-08-14T06:37:43;16.05;;;14.20;;
12814;SDS011;6472;52.328;13.070;2022-08-14T06:40:13;14.18;;;12.23;;
12814;SDS011;6472;52.328;13.070;2022-08-14T06:42:53;17.70;;;13.98;;
12814;SDS011;6472;52.328;13.070;2022-08-14T06:45:25;15.57;;;13.38;;
12814;SDS011;6472;52.328;13.070;2022-08-14T06:47:54;14.02;;;12.63;;
12814;SDS011;6472;52.328;13.070;2022-08-14T06:50:25;15.20;;;13.60;;
12814;SDS011;6472;52.328;13.070;2022-08-14T06:52:56;15.73;;;13.55;;
12814;SDS011;6472;52.328;13.070;2022-08-14T06:55:24;16.70;;;13.85;;
12814;SDS011;6472;52.328;13.070;2022-08-14T06:57:54;14.55;;;13.05;;
12814;SDS011;6472;52.328;13.070;2022-08-14T07:00:24;18.50;;;13.15;;
12814;SDS011;6472;52.328;13.070;2022-08-14T07:02:56;15.00;;;13.32;;
12814;SDS011;6472;52.328;13.070;2022-08-14T07:05:48;14.73;;;12.77;;
12814;SDS011;6472;52.328;13.070;2022-08-14T07:08:24;15.77;;;14.00;;
12814;SDS011;6472;52.328;13.070;2022-08-14T07:10:57;13.52;;;12.23;;
12814;SDS011;6472;52.328;13.070;2022-08-14T07:13:29;14.27;;;12.88;;
12814;SDS011;6472;52.328;13.070;2022-08-14T07:15:58;13.73;;;11.70;;
12814;SDS011;6472;52.328;13.070;2022-08-14T07:18:31;14.05;;;12.50;;
12814;SDS011;6472;52.328;13.070;2022-08-14T07:21:03;16.42;;;12.98;;
12814;SDS011;6472;52.328;13.070;2022-08-14T07:23:32;15.05;;;13.48;;
12814;SDS011;6472;52.328;13.070;2022-08-14T07:26:09;12.95;;;11.13;;
12814;SDS011;6472;52.328;13.070;2022-08-14T07:28:40;13.68;;;11.40;;
12814;SDS011;6472;52.328;13.070;2022-08-14T07:31:10;14.18;;;12.70;;
12814;SDS011;6472;52.328;13.070;2022-08-14T07:33:42;14.13;;;12.65;;
12814;SDS011;6472;52.328;13.070;2022-08-14T07:36:18;15.48;;;13.88;;
12814;SDS011;6472;52.328;13.070;2022-08-14T07:38:56;15.32;;;13.20;;
12814;SDS011;6472;52.328;13.070;2022-08-14T07:41:25;14.93;;;12.50;;
12814;SDS011;6472;52.328;13.070;2022-08-14T07:43:59;14.93;;;13.32;;
12814;SDS011;6472;52.328;13.070;2022-08-14T07:46:48;13.05;;;11.65;;
12814;SDS011;6472;52.328;13.070;2022-08-14T07:49:16;12.50;;;11.20;;
12814;SDS011;6472;52.328;13.070;2022-08-14T07:51:46;13.13;;;11.15;;
12814;SDS011;6472;52.328;13.070;2022-08-14T07:54:15;14.10;;;12.65;;
12814;SDS011;6472;52.328;13.070;2022-08-14T07:56:55;13.25;;;11.30;;
12814;SDS011;6472;52.328;13.070;2022-08-14T07:59:25;14.95;;;12.65;;
12814;SDS011;6472;52.328;13.070;2022-08-14T08:02:09;14.77;;;11.70;;
12814;SDS011;6472;52.328;13.070;2022-08-14T08:04:45;12.85;;;11.32;;
12814;SDS011;6472;52.328;13.070;2022-08-14T08:07:20;14.73;;;11.18;;
12814;SDS011;6472;52.328;13.070;2022-08-14T08:09:55;13.00;;;11.70;;
12814;SDS011;6472;52.328;13.070;2022-08-14T08:12:26;11.85;;;10.68;;
12814;SDS011;6472;52.328;13.070;2022-08-14T08:14:57;11.07;;;9.88;;
12814;SDS011;6472;52.328;13.070;2022-08-14T08:17:33;10.55;;;9.55;;
12814;SDS011;6472;52.328;13.070;2022-08-14T08:20:05;10.23;;;9.23;;
12814;SDS011;6472;52.328;13.070;2022-08-14T08:22:39;11.02;;;9.93;;
12814;SDS011;6472;52.328;13.070;2022-08-14T08:25:13;11.07;;;9.98;;
12814;SDS011;6472;52.328;13.070;2022-08-14T08:27:52;9.93;;;9.02;;
12814;SDS011;6472;52.328;13.070;2022-08-14T08:30:32;9.60;;;8.43;;
12814;SDS011;6472;52.328;13.070;2022-08-14T08:33:15;10.38;;;8.40;;
12814;SDS011;6472;52.328;13.070;2022-08-14T08:35:45;9.90;;;8.10;;
12814;SDS011;6472;52.328;13.070;2022-08-14T08:38:18;10.75;;;9.60;;
12814;SDS011;6472;52.328;13.070;2022-08-14T08:41:07;8.95;;;8.13;;
12814;SDS011;6472;52.328;13.070;2022-08-14T08:43:37;8.52;;;7.72;;
12814;SDS011;6472;52.328;13.070;2022-08-14T08:46:12;8.20;;;7.43;;
12814;SDS011;6472;52.328;13.070;2022-08-14T08:48:50;10.00;;;9.00;;
12814;SDS011;6472;52.328;13.070;2022-08-14T08:51:19;9.40;;;8.55;;
12814;SDS011;6472;52.328;13.070;2022-08-14T08:53:59;11.70;;;8.90;;
12814;SDS011;6472;52.328;13.070;2022-08-14T08:56:32;10.02;;;9.05;;
12814;SDS011;6472;52.328;13.070;2022-08-14T08:59:17;8.82;;;7.97;;
12814;SDS011;6472;52.328;13.070;2022-08-14T09:01:47;7.90;;;7.22;;
12814;SDS011;6472;52.328;13.070;2022-08-14T09:04:21;8.05;;;7.35;;
12814;SDS011;6472;52.328;13.070;2022-08-14T09:06:51;7.70;;;7.00;;
12814;SDS011;6472;52.328;13.070;2022-08-14T09:09:37;8.18;;;7.47;;
12814;SDS011;6472;52.328;13.070;2022-08-14T09:12:24;7.13;;;6.53;;
12814;SDS011;6472;52.328;13.070;2022-08-14T09:15:12;8.85;;;6.97;;
12814;SDS011;6472;52.328;13.070;2022-08-14T09:17:41;6.78;;;6.18;;
12814;SDS011;6472;52.328;13.070;2022-08-14T09:20:11;8.25;;;6.57;;
12814;SDS011;6472;52.328;13.070;2022-08-14T09:22:51;6.50;;;5.75;;
12814;SDS011;6472;52.328;13.070;2022-08-14T09:25:23;6.88;;;6.30;;
12814;SDS011;6472;52.328;13.070;2022-08-14T09:28:11;7.57;;;6.88;;
12814;SDS011;6472;52.328;13.070;2022-08-14T09:30:42;6.95;;;6.35;;
12814;SDS011;6472;52.328;13.070;2022-08-14T09:33:19;7.25;;;6.55;;
12814;SDS011;6472;52.328;13.070;2022-08-14T09:36:16;6.97;;;6.28;;
12814;SDS011;6472;52.328;13.070;2022-08-14T09:38:57;7.28;;;5.95;;
12814;SDS011;6472;52.328;13.070;2022-08-14T09:41:45;6.18;;;5.57;;
12814;SDS011;6472;52.328;13.070;2022-08-14T09:44:41;6.32;;;5.80;;
12814;SDS011;6472;52.328;13.070;2022-08-14T09:47:15;6.60;;;6.00;;
12814;SDS011;6472;52.328;13.070;2022-08-14T09:49:44;8.20;;;5.90;;
12814;SDS011;6472;52.328;13.070;2022-08-14T09:52:18;6.05;;;5.45;;
12814;SDS011;6472;52.328;13.070;2022-08-14T09:54:59;6.97;;;6.38;;
12814;SDS011;6472;52.328;13.070;2022-08-14T09:57:30;6.95;;;6.28;;
12814;SDS011;6472;52.328;13.070;2022-08-14T10:00:08;10.40;;;6.40;;
12814;SDS011;6472;52.328;13.070;2022-08-14T10:02:55;6.43;;;5.82;;
12814;SDS011;6472;52.328;13.070;2022-08-14T10:05:31;6.60;;;6.00;;
12814;SDS011;6472;52.328;13.070;2022-08-14T10:08:16;7.50;;;5.72;;
12814;SDS011;6472;52.328;13.070;2022-08-14T10:10:51;6.82;;;6.28;;
12814;SDS011;6472;52.328;13.070;2022-08-14T10:13:29;6.25;;;5.72;;
12814;SDS011;6472;52.328;13.070;2022-08-14T10:16:18;6.10;;;5.70;;
12814;SDS011;6472;52.328;13.070;2022-08-14T10:19:05;6.07;;;5.47;;
12814;SDS011;6472;52.328;13.070;2022-08-14T10:21:35;6.25;;;5.70;;
12814;SDS011;6472;52.328;13.070;2022-08-14T10:24:24;6.43;;;5.60;;
12814;SDS011;6472;52.328;13.070;2022-08-14T10:27:01;7.45;;;6.75;;
12814;SDS011;6472;52.328;13.070;2022-08-14T10:29:32;7.13;;;6.53;;
12814;SDS011;6472;52.328;13.070;2022-08-14T10:32:03;7.32;;;6.72;;
12814;SDS011;6472;52.328;13.070;2022-08-14T10:34:43;7.60;;;6.03;;
12814;SDS011;6472;52.328;13.070;2022-08-14T10:37:18;6.05;;;5.55;;
12814;SDS011;6472;52.328;13.070;2022-08-14T10:39:56;6.70;;;5.93;;
12814;SDS011;6472;52.328;13.070;2022-08-14T10:42:34;5.78;;;5.30;;
12814;SDS011;6472;52.328;13.070;2022-08-14T10:45:16;5.30;;;4.90;;
12814;SDS011;6472;52.328;13.070;2022-08-14T10:47:47;6.22;;;5.72;;
12814;SDS011;6472;52.328;13.070;2022-08-14T10:50:35;8.38;;;5.63;;
12814;SDS011;6472;52.328;13.070;2022-08-14T10:53:12;6.60;;;5.90;;
12814;SDS011;6472;52.328;13.070;2022-08-14T10:55:40;6.53;;;5.57;;
12814;SDS011;6472;52.328;13.070;2022-08-14T10:58:11;5.53;;;5.13;;
12814;SDS011;6472;52.328;13.070;2022-08-14T11:00:53;6.10;;;5.60;;
12814;SDS011;6472;52.328;13.070;2022-08-14T11:03:23;5.97;;;5.43;;
12814;SDS011;6472;52.328;13.070;2022-08-14T11:06:13;5.82;;;5.30;;
12814;SDS011;6472;52.328;13.070;2022-08-14T11:08:46;5.38;;;4.97;;
12814;SDS011;6472;52.328;13.070;2022-08-14T11:11:18;5.57;;;5.13;;
12814;SDS011;6472;52.328;13.070;2022-08-14T11:13:48;4.63;;;4.32;;
12814;SDS011;6472;52.328;13.070;2022-08-14T11:16:17;5.90;;;5.13;;
12814;SDS011;6472;52.328;13.070;2022-08-14T11:18:47;4.90;;;4.55;;
12814;SDS011;6472;52.328;13.070;2022-08-14T11:21:17;6.13;;;5.53;;
12814;SDS011;6472;52.328;13.070;2022-08-14T11:23:48;5.38;;;4.97;;
12814;SDS011;6472;52.328;13.070;2022-08-14T11:26:22;5.30;;;4.80;;
12814;SDS011;6472;52.328;13.070;2022-08-14T11:28:55;5.72;;;5.32;;
12814;SDS011;6472;52.328;13.070;2022-08-14T11:31:29;5.68;;;5.28;;
12814;SDS011;6472;52.328;13.070;2022-08-14T11:34:04;6.05;;;5.55;;
12814;SDS011;6472;52.328;13.070;2022-08-14T11:36:52;5.10;;;4.75;;
12814;SDS011;6472;52.328;13.070;2022-08-14T11:39:41;5.55;;;5.13;;
12814;SDS011;6472;52.328;13.070;2022-08-14T11:42:17;5.57;;;5.18;;
12814;SDS011;6472;52.328;13.070;2022-08-14T11:45:07;5.40;;;4.90;;
12814;SDS011;6472;52.328;13.070;2022-08-14T11:47:43;5.95;;;5.25;;
12814;SDS011;6472;52.328;13.070;2022-08-14T11:50:32;5.32;;;4.82;;
12814;SDS011;6472;52.328;13.070;2022-08-14T11:53:03;6.30;;;5.35;;
12814;SDS011;6472;52.328;13.070;2022-08-14T11:55:34;4.60;;;4.20;;
12814;SDS011;6472;52.328;13.070;2022-08-14T11:58:05;5.68;;;5.22;;
12814;SDS011;6472;52.328;13.070;2022-08-14T12:00:44;5.05;;;4.35;;
12814;SDS011;6472;52.328;13.070;2022-08-14T12:03:15;4.28;;;3.97;;
12814;SDS011;6472;52.328;13.070;2022-08-14T12:06:03;4.50;;;4.20;;
12814;SDS011;6472;52.328;13.070;2022-08-14T12:08:54;4.50;;;4.13;;
12814;SDS011;6472;52.328;13.070;2022-08-14T12:11:36;4.75;;;4.03;;
12814;SDS011;6472;52.328;13.070;2022-08-14T12:14:09;4.18;;;3.78;;
12814;SDS011;6472;52.328;13.070;2022-08-14T12:16:59;4.68;;;4.30;;
12814;SDS011;6472;52.328;13.070;2022-08-14T12:19:31;5.30;;;4.90;;
12814;SDS011;6472;52.328;13.070;2022-08-14T12:22:19;4.85;;;4.50;;
12814;SDS011;6472;52.328;13.070;2022-08-14T12:24:59;4.70;;;4.32;;
12814;SDS011;6472;52.328;13.070;2022-08-14T12:27:38;5.00;;;4.50;;
12814;SDS011;6472;52.328;13.070;2022-08-14T12:30:29;5.18;;;4.53;;
12814;SDS011;6472;52.328;13.070;2022-08-14T12:33:18;4.53;;;4.15;;
12814;SDS011;6472;52.328;13.070;2022-08-14T12:35:54;5.03;;;4.43;;
12814;SDS011;6472;52.328;13.070;2022-08-14T12:38:30;5.30;;;4.47;;
12814;SDS011;6472;52.328;13.070;2022-08-14T12:41:01;4.47;;;4.03;;
12814;SDS011;6472;52.328;13.070;2022-08-14T12:43:42;5.15;;;4.57;;
12814;SDS011;6472;52.328;13.070;2022-08-14T12:46:19;4.43;;;4.13;;
12814;SDS011;6472;52.328;13.070;2022-08-14T12:48:54;5.68;;;4.40;;
12814;SDS011;6472;52.328;13.070;2022-08-14T12:51:25;6.05;;;4.40;;
12814;SDS011;6472;52.328;13.070;2022-08-14T12:53:56;4.78;;;4.45;;
12814;SDS011;6472;52.328;13.070;2022-08-14T12:56:25;6.97;;;4.35;;
12814;SDS011;6472;52.328;13.070;2022-08-14T12:58:59;5.35;;;4.82;;
12814;SDS011;6472;52.328;13.070;2022-08-14T13:01:29;4.85;;;4.45;;
12814;SDS011;6472;52.328;13.070;2022-08-14T13:04:18;5.43;;;4.18;;
12814;SDS011;6472;52.328;13.070;2022-08-14T13:06:49;4.40;;;3.90;;
12814;SDS011;6472;52.328;13.070;2022-08-14T13:09:19;4.70;;;4.30;;
12814;SDS011;6472;52.328;13.070;2022-08-14T13:12:03;4.60;;;4.18;;
12814;SDS011;6472;52.328;13.070;2022-08-14T13:14:52;4.95;;;4.55;;
12814;SDS011;6472;52.328;13.070;2022-08-14T13:17:24;4.78;;;4.40;;
12814;SDS011;6472;52.328;13.070;2022-08-14T13:20:03;5.55;;;4.22;;
12814;SDS011;6472;52.328;13.070;2022-08-14T13:22:37;4.90;;;4.50;;
12814;SDS011;6472;52.328;13.070;2022-08-14T13:25:10;4.70;;;4.30;;
12814;SDS011;6472;52.328;13.070;2022-08-14T13:27:41;4.25;;;3.95;;
12814;SDS011;6472;52.328;13.070;2022-08-14T13:30:15;4.38;;;3.97;;
12814;SDS011;6472;52.328;13.070;2022-08-14T13:32:49;4.53;;;4.22;;
12814;SDS011;6472;52.328;13.070;2022-08-14T13:35:18;4.30;;;3.97;;
12814;SDS011;6472;52.328;13.070;2022-08-14T13:37:49;3.80;;;3.55;;
12814;SDS011;6472;52.328;13.070;2022-08-14T13:40:22;4.80;;;4.40;;
12814;SDS011;6472;52.328;13.070;2022-08-14T13:42:52;4.20;;;3.90;;
12814;SDS011;6472;52.328;13.070;2022-08-14T13:45:22;5.00;;;4.60;;
12814;SDS011;6472;52.328;13.070;2022-08-14T13:48:11;5.05;;;4.57;;
12814;SDS011;6472;52.328;13.070;2022-08-14T13:50:58;5.70;;;5.20;;
12814;SDS011;6472;52.328;13.070;2022-08-14T13:53:29;6.18;;;4.97;;
12814;SDS011;6472;52.328;13.070;2022-08-14T13:56:08;4.97;;;4.65;;
12814;SDS011;6472;52.328;13.070;2022-08-14T13:58:51;4.32;;;4.03;;
12814;SDS011;6472;52.328;13.070;2022-08-14T14:01:25;4.97;;;4.57;;
12814;SDS011;6472;52.328;13.070;2022-08-14T14:03:56;5.28;;;4.80;;
12814;SDS011;6472;52.328;13.070;2022-08-14T14:06:27;4.85;;;4.45;;
12814;SDS011;6472;52.328;13.070;2022-08-14T14:08:58;4.53;;;4.25;;
12814;SDS011;6472;52.328;13.070;2022-08-14T14:11:28;4.80;;;4.20;;
12814;SDS011;6472;52.328;13.070;2022-08-14T14:13:57;4.82;;;4.43;;
12814;SDS011;6472;52.328;13.070;2022-08-14T14:16:25;5.38;;;4.38;;
12814;SDS011;6472;52.328;13.070;2022-08-14T14:18:56;4.00;;;3.70;;
12814;SDS011;6472;52.328;13.070;2022-08-14T14:21:32;4.28;;;3.97;;
12814;SDS011;6472;52.328;13.070;2022-08-14T14:24:01;3.95;;;3.70;;
12814;SDS011;6472;52.328;13.070;2022-08-14T14:26:32;4.85;;;4.55;;
12814;SDS011;6472;52.328;13.070;2022-08-14T14:29:02;4.93;;;4.53;;
12814;SDS011;6472;52.328;13.070;2022-08-14T14:34:40;4.63;;;4.22;;
12814;SDS011;6472;52.328;13.070;2022-08-14T14:37:09;4.68;;;4.28;;
12814;SDS011;6472;52.328;13.070;2022-08-14T14:39:41;4.70;;;4.30;;
12814;SDS011;6472;52.328;13.070;2022-08-14T14:42:34;4.50;;;4.20;;
12814;SDS011;6472;52.328;13.070;2022-08-14T14:45:08;4.15;;;3.83;;
12814;SDS011;6472;52.328;13.070;2022-08-14T14:47:41;4.20;;;3.58;;
12814;SDS011;6472;52.328;13.070;2022-08-14T14:50:09;4.20;;;3.90;;
12814;SDS011;6472;52.328;13.070;2022-08-14T14:52:38;4.15;;;3.80;;
12814;SDS011;6472;52.328;13.070;2022-08-14T14:55:09;5.70;;;3.78;;
12814;SDS011;6472;52.328;13.070;2022-08-14T14:57:42;3.63;;;3.38;;
12814;SDS011;6472;52.328;13.070;2022-08-14T15:00:18;4.20;;;3.80;;
12814;SDS011;6472;52.328;13.070;2022-08-14T15:02:47;4.22;;;3.92;;
12814;SDS011;6472;52.328;13.070;2022-08-14T15:05:17;4.15;;;3.85;;
12814;SDS011;6472;52.328;13.070;2022-08-14T15:07:47;4.05;;;3.75;;
12814;SDS011;6472;52.328;13.070;2022-08-14T15:10:20;3.83;;;3.53;;
12814;SDS011;6472;52.328;13.070;2022-08-14T15:12:56;4.20;;;3.80;;
12814;SDS011;6472;52.328;13.070;2022-08-14T15:15:29;4.68;;;3.58;;
12814;SDS011;6472;52.328;13.070;2022-08-14T15:17:58;3.92;;;3.63;;
12814;SDS011;6472;52.328;13.070;2022-08-14T15:20:27;4.47;;;4.07;;
12814;SDS011;6472;52.328;13.070;2022-08-14T15:22:57;3.78;;;3.42;;
12814;SDS011;6472;52.328;13.070;2022-08-14T15:25:39;3.20;;;3.00;;